Main page
METAR-TAF:

METAR-TAF

Airports :

Colmenar Viejo, Spain

latitude: 40-39N, longitude: 003-44W, elevation: -999 m

Current weather observation

The report was made 6 hours and 1 minutes ago, at 18:00 UTC
Wind 8 kt from the East/Northeast
Temperature 21°C
Humidity 25%
Pressure 1023 hPa
Visibility 10 km or more
no clouds below 1500 m and no cumulonimbus

METAR: LECV 191800Z 07008KT CAVOK 21/M00 Q1023

Time: 02:01 (00:01 UTC)

Forecast

The report was made 7 hours and 1 minutes ago, at 17:00 UTC
Forecast valid from 19 at 18 UTC to 20 at 03 UTC
Wind 5 kt from variable directions
Visibility 10 km or more
no clouds below 1500 m and no cumulonimbus

TAF: LECV 191700Z 1918/2003 VRB05KT CAVOK

Weather observations and forecasts of more than 4000 airports (METAR and TAF reports).

The available stations are represented by yellow and red dots on the map.

Hover mouse over dot to see the name of the station.

Then click to see weather observations and forecasts.

To change the map : click on the green buttons with a black cross to zoom in, on the green button with a dash to zoom out, or on the green arrows for adjacent maps.


METAR-TAF: